Time;durP1;ratioP1;P1;durP2;ratioP2;P2;SDS_P1;SDS_P2;PMS_P1;PMS_P2;Temp;Humidity;BMP_temperature;BMP_pressure;BME280_temperature;BME280_humidity;BME280_pressure;Samples;Min_cycle;Max_cycle;Signal;HPM_P1;HPM_P2
2023/12/20 00:02:11;;;;;;;12.20;11.00;;;23.10;73.50;;;;;;6205027;28;88323;-65
2023/12/20 00:05:14;;;;;;;12.98;11.40;;;23.10;73.50;;;;;;6196086;28;89011;-64
2023/12/20 00:08:16;;;;;;;14.55;11.98;;;23.10;73.60;;;;;;6177363;28;89952;-64
2023/12/20 00:11:18;;;;;;;15.13;11.88;;;23.10;73.60;;;;;;6205466;28;89174;-64
2023/12/20 00:14:20;;;;;;;10.95;9.50;;;23.10;73.50;;;;;;6213458;28;88266;-64
2023/12/20 00:17:22;;;;;;;9.60;8.60;;;23.10;72.40;;;;;;6193289;28;89043;-65
2023/12/20 00:20:26;;;;;;;10.05;8.95;;;23.10;70.90;;;;;;6211256;28;89133;-65
2023/12/20 00:23:27;;;;;;;11.80;9.88;;;23.00;70.90;;;;;;6199779;28;88976;-65
2023/12/20 00:26:30;;;;;;;12.75;10.57;;;23.10;71.50;;;;;;6208713;28;89140;-65
2023/12/20 00:29:31;;;;;;;11.05;9.95;;;23.00;71.70;;;;;;6204221;28;88221;-64
2023/12/20 00:32:33;;;;;;;11.77;10.40;;;23.00;71.80;;;;;;6214148;28;89078;-65
2023/12/20 00:35:37;;;;;;;11.15;10.05;;;23.00;71.90;;;;;;6208407;28;87946;-65
2023/12/20 00:38:39;;;;;;;10.90;9.80;;;23.00;72.00;;;;;;6206255;28;89167;-65
2023/12/20 00:41:41;;;;;;;11.20;10.10;;;23.00;72.00;;;;;;6217125;28;89055;-65
2023/12/20 00:44:43;;;;;;;11.35;10.25;;;23.00;72.00;;;;;;6205218;28;89898;-65
2023/12/20 00:47:44;;;;;;;12.07;10.82;;;23.00;72.10;;;;;;6221948;28;88986;-65
2023/12/20 00:50:48;;;;;;;10.65;9.55;;;23.00;72.10;;;;;;6216409;28;89003;-65
2023/12/20 00:53:54;;;;;;;11.63;10.43;;;23.00;72.10;;;;;;6219025;28;87896;-65
2023/12/20 00:56:56;;;;;;;11.50;10.30;;;23.00;72.20;;;;;;6204137;28;89147;-65
2023/12/20 00:59:58;;;;;;;11.45;10.20;;;23.00;72.20;;;;;;6230953;28;88310;-65
2023/12/20 01:03:00;;;;;;;12.27;10.95;;;22.90;72.10;;;;;;6217027;28;89101;-65
2023/12/20 01:06:04;;;;;;;11.13;10.00;;;23.00;72.20;;;;;;6230174;28;88563;-65
2023/12/20 01:09:06;;;;;;;11.52;10.23;;;23.00;72.40;;;;;;6193798;28;88904;-65
2023/12/20 01:12:08;;;;;;;11.70;10.50;;;23.00;72.20;;;;;;6217300;28;88950;-64
2023/12/20 01:15:11;;;;;;;11.85;10.65;;;22.90;72.10;;;;;;6201855;28;88987;-64
2023/12/20 01:18:13;;;;;;;11.18;10.00;;;22.90;72.20;;;;;;6199800;28;89389;-65
2023/12/20 01:21:16;;;;;;;11.80;10.60;;;22.90;72.10;;;;;;6205147;28;89213;-65
2023/12/20 01:24:18;;;;;;;12.13;10.77;;;22.90;72.00;;;;;;6203718;28;89052;-65
2023/12/20 01:27:20;;;;;;;11.38;10.18;;;22.90;72.10;;;;;;6198128;28;89053;-64
2023/12/20 01:30:22;;;;;;;11.38;10.27;;;22.90;72.00;;;;;;6193733;28;88358;-65
2023/12/20 01:33:24;;;;;;;11.45;10.35;;;22.90;72.00;;;;;;6204971;28;89112;-64
2023/12/20 01:36:27;;;;;;;11.05;9.95;;;22.80;72.00;;;;;;6193337;28;89266;-64
2023/12/20 01:39:29;;;;;;;11.63;10.40;;;22.90;72.00;;;;;;6205835;28;89987;-65
2023/12/20 01:42:31;;;;;;;12.07;10.82;;;22.90;72.00;;;;;;6206306;28;89135;-65
2023/12/20 01:45:33;;;;;;;11.13;9.93;;;22.90;72.00;;;;;;6206736;28;89101;-65
2023/12/20 01:48:36;;;;;;;11.32;9.88;;;22.80;71.90;;;;;;6205075;28;89586;-65
2023/12/20 01:51:40;;;;;;;12.13;10.88;;;22.80;71.80;;;;;;6200087;28;89025;-65
2023/12/20 01:54:43;;;;;;;10.32;9.32;;;22.90;71.90;;;;;;6202749;28;89300;-64
2023/12/20 01:57:47;;;;;;;11.50;10.25;;;22.90;71.90;;;;;;6205314;28;89039;-65
2023/12/20 02:00:49;;;;;;;10.65;9.55;;;22.90;72.00;;;;;;6194810;28;87275;-64
2023/12/20 02:03:52;;;;;;;11.40;10.30;;;22.90;71.90;;;;;;6197898;28;89116;-64
2023/12/20 02:06:57;;;;;;;10.82;9.73;;;22.80;71.90;;;;;;6195850;28;89027;-65
2023/12/20 02:09:59;;;;;;;10.73;9.68;;;22.80;71.90;;;;;;6196871;28;90119;-64
2023/12/20 02:13:01;;;;;;;11.32;10.20;;;22.80;71.80;;;;;;6211904;28;89103;-64
2023/12/20 02:16:04;;;;;;;10.70;9.63;;;22.80;71.80;;;;;;6198378;28;89314;-65
2023/12/20 02:19:14;;;;;;;10.23;9.23;;;22.80;71.80;;;;;;6210546;28;89326;-64
2023/12/20 02:22:17;;;;;;;10.65;9.52;;;22.80;71.80;;;;;;6198186;28;89079;-65
2023/12/20 02:25:19;;;;;;;10.63;9.50;;;22.80;71.80;;;;;;6195469;28;89700;-65
2023/12/20 02:28:22;;;;;;;10.38;9.35;;;22.70;71.70;;;;;;6204454;28;89231;-65
2023/12/20 02:31:25;;;;;;;9.95;9.05;;;22.80;71.80;;;;;;6183782;28;88303;-65
2023/12/20 02:34:27;;;;;;;10.90;9.80;;;22.70;72.60;;;;;;6201467;28;89112;-65
2023/12/20 02:37:30;;;;;;;14.90;10.75;;;22.70;71.60;;;;;;6196563;28;88004;-65
2023/12/20 02:40:32;;;;;;;10.43;9.32;;;22.70;71.60;;;;;;6191492;28;89980;-65
2023/12/20 02:43:34;;;;;;;10.15;9.13;;;22.70;71.60;;;;;;6208824;28;87960;-65
2023/12/20 02:46:36;;;;;;;10.02;9.02;;;22.70;71.60;;;;;;6197107;28;89094;-65
2023/12/20 02:49:38;;;;;;;9.82;8.82;;;22.70;71.60;;;;;;6205852;28;89054;-65
2023/12/20 02:52:44;;;;;;;10.18;9.18;;;22.70;71.60;;;;;;6203259;28;89061;-65
2023/12/20 02:55:45;;;;;;;10.32;9.30;;;22.70;71.60;;;;;;6204662;28;89044;-65
2023/12/20 02:58:47;;;;;;;9.48;8.57;;;22.70;71.60;;;;;;6197836;28;89149;-66
2023/12/20 03:01:49;;;;;;;9.52;8.60;;;22.70;71.60;;;;;;6196946;28;88319;-66
2023/12/20 03:04:51;;;;;;;9.77;8.77;;;22.70;71.60;;;;;;6211314;28;89096;-66
2023/12/20 03:07:54;;;;;;;9.93;8.93;;;22.70;71.60;;;;;;6209591;28;89025;-66
2023/12/20 03:10:56;;;;;;;9.80;8.75;;;22.70;71.60;;;;;;6212478;28;90273;-66
2023/12/20 03:13:58;;;;;;;10.02;9.00;;;22.70;71.60;;;;;;6203926;28;87922;-66
2023/12/20 03:17:00;;;;;;;9.40;8.50;;;22.60;71.60;;;;;;6194531;28;89141;-66
2023/12/20 03:20:03;;;;;;;10.13;9.13;;;22.70;71.60;;;;;;6195549;28;89103;-66
2023/12/20 03:23:06;;;;;;;9.57;8.23;;;22.60;71.60;;;;;;6203771;28;89025;-66
2023/12/20 03:26:08;;;;;;;9.15;8.25;;;22.60;71.50;;;;;;6202034;28;88998;-66
2023/12/20 03:29:10;;;;;;;9.23;8.32;;;22.60;71.60;;;;;;6204613;28;89081;-66
2023/12/20 03:32:12;;;;;;;8.88;7.97;;;22.60;71.60;;;;;;6189139;28;87256;-66
2023/12/20 03:35:14;;;;;;;9.73;8.73;;;22.60;71.50;;;;;;6203648;28;89123;-66
2023/12/20 03:38:17;;;;;;;9.27;8.38;;;22.60;71.60;;;;;;6208785;28;89064;-66
2023/12/20 03:41:20;;;;;;;9.52;8.43;;;22.60;72.50;;;;;;6203314;28;90012;-66
2023/12/20 03:44:22;;;;;;;9.18;8.27;;;22.60;71.60;;;;;;6191097;28;89044;-66
2023/12/20 03:47:24;;;;;;;9.02;8.13;;;22.60;71.50;;;;;;6180304;28;89044;-66
2023/12/20 03:50:26;;;;;;;9.18;8.27;;;22.60;71.50;;;;;;6203146;28;88991;-66
2023/12/20 03:53:30;;;;;;;9.85;8.77;;;22.60;71.60;;;;;;6194347;28;89364;-65
2023/12/20 03:56:32;;;;;;;8.60;7.80;;;22.60;71.50;;;;;;6201039;28;88027;-66
2023/12/20 03:59:37;;;;;;;8.32;7.53;;;22.60;71.50;;;;;;6199924;28;89120;-66
2023/12/20 04:02:39;;;;;;;9.10;8.20;;;22.60;71.50;;;;;;6209006;28;88288;-66
2023/12/20 04:05:41;;;;;;;8.90;8.00;;;22.60;71.50;;;;;;6207658;28;88964;-66
2023/12/20 04:08:45;;;;;;;8.80;7.93;;;22.60;71.60;;;;;;6204161;28;89025;-66
2023/12/20 04:11:47;;;;;;;8.73;7.90;;;22.60;71.50;;;;;;6202300;28;90038;-66
2023/12/20 04:14:49;;;;;;;8.75;7.85;;;22.60;71.50;;;;;;6200126;28;89160;-66
2023/12/20 04:17:53;;;;;;;9.15;8.25;;;22.50;71.50;;;;;;6186135;28;89362;-66
2023/12/20 04:20:55;;;;;;;8.50;7.65;;;22.50;71.50;;;;;;6208544;28;88516;-66
2023/12/20 04:23:58;;;;;;;9.38;8.23;;;22.50;71.50;;;;;;6207316;28;89125;-66
2023/12/20 04:27:00;;;;;;;8.55;7.68;;;22.60;71.60;;;;;;6208101;28;89521;-65
2023/12/20 04:30:02;;;;;;;8.70;7.80;;;22.50;71.50;;;;;;6208940;28;89072;-65
2023/12/20 04:33:05;;;;;;;9.02;8.13;;;22.50;71.60;;;;;;6206344;28;87095;-65
2023/12/20 04:36:08;;;;;;;8.23;7.45;;;22.50;71.60;;;;;;6205080;28;88949;-65
2023/12/20 04:39:14;;;;;;;8.30;7.50;;;22.50;71.60;;;;;;6207796;28;89346;-65
2023/12/20 04:42:16;;;;;;;8.43;7.63;;;22.50;71.60;;;;;;6194962;28;90299;-66
2023/12/20 04:45:19;;;;;;;8.45;7.63;;;22.50;71.60;;;;;;6199449;28;89038;-65
2023/12/20 04:48:21;;;;;;;8.20;7.40;;;22.50;71.60;;;;;;6192877;28;87760;-65
2023/12/20 04:51:23;;;;;;;8.55;7.65;;;22.50;71.60;;;;;;6208100;28;89076;-65
2023/12/20 04:54:26;;;;;;;8.50;7.70;;;22.50;71.60;;;;;;6208083;28;88949;-65
2023/12/20 04:57:28;;;;;;;8.93;8.02;;;22.50;71.60;;;;;;6202214;28;89013;-65
2023/12/20 05:00:30;;;;;;;8.65;7.80;;;22.50;71.60;;;;;;6206449;28;89069;-65
2023/12/20 05:03:32;;;;;;;8.60;7.70;;;22.50;71.60;;;;;;6207464;28;88307;-65
2023/12/20 05:06:34;;;;;;;8.95;8.05;;;22.50;71.60;;;;;;6198592;28;89061;-65
2023/12/20 05:09:38;;;;;;;10.73;8.18;;;22.50;71.70;;;;;;6199485;28;89032;-65
2023/12/20 05:12:39;;;;;;;8.48;7.57;;;22.50;71.60;;;;;;6205719;28;90083;-65
2023/12/20 05:15:41;;;;;;;7.82;7.03;;;22.50;71.70;;;;;;6196605;28;89054;-65
2023/12/20 05:18:43;;;;;;;8.35;7.55;;;22.50;71.70;;;;;;6200230;28;89985;-65
2023/12/20 05:21:45;;;;;;;8.10;7.28;;;22.50;71.70;;;;;;6200537;28;88989;-65
2023/12/20 05:24:49;;;;;;;8.50;7.60;;;22.50;71.70;;;;;;6205489;28;89133;-65
2023/12/20 05:27:52;;;;;;;7.97;7.20;;;22.50;71.70;;;;;;6206213;28;88853;-65
2023/12/20 05:30:55;;;;;;;8.00;7.20;;;22.50;71.70;;;;;;6210882;28;89128;-65
2023/12/20 05:33:56;;;;;;;8.30;7.43;;;22.50;71.80;;;;;;6198072;28;88350;-65
2023/12/20 05:36:59;;;;;;;7.60;6.90;;;22.50;71.70;;;;;;6203537;28;89028;-65
2023/12/20 05:40:02;;;;;;;7.50;6.80;;;22.50;71.70;;;;;;6193676;28;89818;-65
2023/12/20 05:43:04;;;;;;;12.13;8.25;;;22.50;71.80;;;;;;6194503;28;90042;-65
2023/12/20 05:46:06;;;;;;;8.60;7.10;;;22.50;71.80;;;;;;6206307;28;89000;-65
2023/12/20 05:49:08;;;;;;;7.75;7.05;;;22.50;71.80;;;;;;6207567;28;89107;-65
2023/12/20 05:52:10;;;;;;;7.50;6.70;;;22.50;71.80;;;;;;6194661;28;89012;-65
2023/12/20 05:55:14;;;;;;;7.63;6.93;;;22.50;71.80;;;;;;6199490;28;89017;-65
2023/12/20 05:58:16;;;;;;;7.88;7.07;;;22.50;71.80;;;;;;6202905;28;89071;-65
2023/12/20 06:01:18;;;;;;;7.75;6.85;;;22.50;71.70;;;;;;6202373;28;89378;-65
2023/12/20 06:04:20;;;;;;;7.22;6.53;;;22.50;71.60;;;;;;6205785;28;88516;-65
2023/12/20 06:07:22;;;;;;;7.38;6.57;;;22.50;71.80;;;;;;6205361;28;89525;-65
2023/12/20 06:10:25;;;;;;;7.13;6.10;;;22.50;71.90;;;;;;6192573;28;89243;-65
2023/12/20 06:13:27;;;;;;;7.68;6.75;;;22.50;71.80;;;;;;6198715;28;89036;-65
2023/12/20 06:16:29;;;;;;;6.80;6.10;;;22.50;71.80;;;;;;6199950;28;89387;-65
2023/12/20 06:19:31;;;;;;;6.90;6.20;;;22.50;71.80;;;;;;6206255;28;89127;-65
2023/12/20 06:22:33;;;;;;;7.00;6.28;;;22.50;71.80;;;;;;6193192;28;89054;-65
2023/12/20 06:25:36;;;;;;;7.85;6.40;;;22.50;71.80;;;;;;6194564;28;89092;-65
2023/12/20 06:28:38;;;;;;;7.15;6.25;;;22.50;71.80;;;;;;6194768;28;89149;-65
2023/12/20 06:31:40;;;;;;;6.55;5.85;;;22.50;71.90;;;;;;6194304;28;87977;-65
2023/12/20 06:34:42;;;;;;;7.40;6.28;;;22.50;71.80;;;;;;6203151;28;88746;-65
2023/12/20 06:37:44;;;;;;;6.40;5.80;;;22.50;71.90;;;;;;6204892;28;89385;-65
2023/12/20 06:40:47;;;;;;;6.93;6.10;;;22.50;71.80;;;;;;6203506;28;89067;-65
2023/12/20 06:43:49;;;;;;;8.77;6.30;;;22.50;71.80;;;;;;6196431;28;90139;-65
2023/12/20 06:46:51;;;;;;;6.13;5.47;;;22.50;71.80;;;;;;6192490;28;87986;-65
2023/12/20 06:49:53;;;;;;;6.60;5.70;;;22.50;71.80;;;;;;6192419;28;89134;-65
2023/12/20 06:52:55;;;;;;;5.85;5.35;;;22.50;71.80;;;;;;6203948;28;87967;-65
2023/12/20 06:55:59;;;;;;;6.40;5.38;;;22.50;71.80;;;;;;6203105;28;88983;-66
2023/12/20 06:59:01;;;;;;;6.13;5.35;;;22.50;71.80;;;;;;6188119;28;88129;-65
2023/12/20 07:02:03;;;;;;;5.55;5.05;;;22.50;71.80;;;;;;6200236;28;89678;-65
2023/12/20 07:05:06;;;;;;;5.82;5.22;;;22.50;71.80;;;;;;6211166;28;88369;-65
2023/12/20 07:08:08;;;;;;;5.72;5.22;;;22.50;71.70;;;;;;6196656;28;89322;-66
2023/12/20 07:11:11;;;;;;;6.32;5.55;;;22.50;71.70;;;;;;6203978;28;89232;-66
2023/12/20 07:14:13;;;;;;;6.93;5.70;;;22.50;71.60;;;;;;6203866;28;90119;-65
2023/12/20 07:17:15;;;;;;;5.47;4.95;;;22.50;71.70;;;;;;6203861;28;89165;-65
2023/12/20 07:20:17;;;;;;;6.00;5.40;;;22.50;71.70;;;;;;6205470;28;87996;-66
2023/12/20 07:23:20;;;;;;;5.68;5.07;;;22.50;71.60;;;;;;6204698;28;91046;-66
2023/12/20 07:26:23;;;;;;;5.18;4.65;;;22.50;71.70;;;;;;6197904;28;88169;-66
2023/12/20 07:29:25;;;;;;;4.97;4.45;;;22.50;71.70;;;;;;6204916;28;89066;-66
2023/12/20 07:32:27;;;;;;;5.18;4.68;;;22.50;71.70;;;;;;6203740;28;88744;-66
2023/12/20 07:35:29;;;;;;;5.35;4.85;;;22.50;71.70;;;;;;6200773;28;88662;-66
2023/12/20 07:38:31;;;;;;;5.10;4.60;;;22.50;71.70;;;;;;6190695;28;89403;-66
2023/12/20 07:41:34;;;;;;;5.45;4.80;;;22.50;71.70;;;;;;6205132;28;89082;-66
2023/12/20 07:44:37;;;;;;;8.15;5.72;;;22.50;71.70;;;;;;6187092;28;89952;-66
2023/12/20 07:47:40;;;;;;;5.25;4.63;;;22.50;71.70;;;;;;6195776;28;89039;-66
2023/12/20 07:50:42;;;;;;;8.40;5.53;;;22.50;71.70;;;;;;6205162;28;89103;-66
2023/12/20 07:53:44;;;;;;;4.88;4.35;;;22.50;71.70;;;;;;6205085;28;89065;-66
2023/12/20 07:56:48;;;;;;;4.65;4.25;;;22.50;71.70;;;;;;6202557;28;89627;-66
2023/12/20 07:59:50;;;;;;;5.25;4.72;;;22.50;71.80;;;;;;6202567;28;89034;-66
2023/12/20 08:02:52;;;;;;;5.10;4.60;;;22.50;71.70;;;;;;6202812;28;89100;-66
2023/12/20 08:05:54;;;;;;;5.07;4.32;;;22.50;71.70;;;;;;6200468;28;88319;-66
2023/12/20 08:08:56;;;;;;;4.93;4.53;;;22.50;71.70;;;;;;6207919;28;90554;-66
2023/12/20 08:11:59;;;;;;;4.72;4.22;;;22.50;71.70;;;;;;6184079;28;89433;-66
2023/12/20 08:15:02;;;;;;;4.60;4.20;;;22.50;71.70;;;;;;6191223;28;88868;-66
2023/12/20 08:18:04;;;;;;;5.05;4.50;;;22.50;72.70;;;;;;6192767;28;88086;-66
2023/12/20 08:21:07;;;;;;;5.93;4.82;;;22.50;71.70;;;;;;6207378;28;89066;-66
2023/12/20 08:24:09;;;;;;;4.80;4.25;;;22.50;71.60;;;;;;6208208;28;89465;-66
2023/12/20 08:27:12;;;;;;;5.20;4.50;;;22.50;71.70;;;;;;6199689;28;87938;-66
2023/12/20 08:30:16;;;;;;;5.20;4.50;;;22.50;71.70;;;;;;6210846;28;87939;-65
2023/12/20 08:33:18;;;;;;;4.32;3.92;;;22.50;71.70;;;;;;6209314;28;89308;-66
2023/12/20 08:36:23;;;;;;;4.63;4.10;;;22.50;71.70;;;;;;6207492;28;88986;-65
2023/12/20 08:39:25;;;;;;;4.90;4.40;;;22.50;71.80;;;;;;6197388;28;89161;-66
2023/12/20 08:42:31;;;;;;;4.53;4.13;;;22.50;71.70;;;;;;6196259;28;88331;-66
2023/12/20 08:45:33;;;;;;;4.70;4.20;;;22.50;71.80;;;;;;6191937;28;88894;-66
2023/12/20 08:48:35;;;;;;;4.95;4.45;;;22.50;71.80;;;;;;6207025;28;90936;-66
2023/12/20 08:51:39;;;;;;;4.88;4.38;;;22.50;71.80;;;;;;6206772;28;89140;-66
2023/12/20 08:54:41;;;;;;;4.60;4.20;;;22.50;71.80;;;;;;6206038;28;87663;-66
2023/12/20 08:57:45;;;;;;;4.88;4.20;;;22.50;71.80;;;;;;6211443;28;89044;-66
2023/12/20 09:00:47;;;;;;;4.35;3.95;;;22.50;71.80;;;;;;6204945;28;88054;-66
2023/12/20 09:03:49;;;;;;;5.15;4.38;;;22.50;71.80;;;;;;6211718;28;88963;-66
2023/12/20 09:06:51;;;;;;;4.93;4.13;;;22.50;71.80;;;;;;6207460;28;88330;-66
2023/12/20 09:09:53;;;;;;;4.30;3.90;;;22.50;71.80;;;;;;6212383;28;89080;-66
2023/12/20 09:12:57;;;;;;;4.40;4.00;;;22.50;71.80;;;;;;6196266;28;89114;-66
2023/12/20 09:15:59;;;;;;;4.60;4.10;;;22.50;71.80;;;;;;6197418;28;89948;-65
2023/12/20 09:19:01;;;;;;;4.25;3.80;;;22.50;71.80;;;;;;6206393;28;89188;-66
2023/12/20 09:22:03;;;;;;;4.50;4.10;;;22.50;71.80;;;;;;6203918;28;88981;-66
2023/12/20 09:25:06;;;;;;;4.60;3.88;;;22.50;72.70;;;;;;6199507;28;89025;-66
2023/12/20 09:28:09;;;;;;;4.65;3.95;;;22.50;71.80;;;;;;6207327;28;89070;-66
2023/12/20 09:31:11;;;;;;;4.22;3.83;;;22.50;71.80;;;;;;6205797;28;89230;-66
2023/12/20 09:34:16;;;;;;;4.05;3.65;;;22.50;71.80;;;;;;6204511;28;89544;-66
2023/12/20 09:37:18;;;;;;;4.20;3.80;;;22.50;71.80;;;;;;6197848;28;91566;-66
2023/12/20 09:40:20;;;;;;;4.20;3.80;;;22.50;71.80;;;;;;6204224;28;89498;-66
2023/12/20 09:43:28;;;;;;;4.20;3.80;;;22.50;71.80;;;;;;6202818;28;89026;-66
2023/12/20 09:46:33;;;;;;;4.00;3.60;;;22.50;71.90;;;;;;6188379;28;90151;-65
2023/12/20 09:49:36;;;;;;;4.45;3.67;;;22.50;71.80;;;;;;6204043;28;88141;-66
2023/12/20 09:52:39;;;;;;;3.97;3.33;;;22.50;71.80;;;;;;6196792;28;88362;-66
2023/12/20 09:55:42;;;;;;;5.22;3.95;;;22.50;71.80;;;;;;6205594;28;89058;-66
2023/12/20 09:58:46;;;;;;;4.15;3.75;;;22.50;71.80;;;;;;6201878;28;89021;-66
2023/12/20 10:01:49;;;;;;;3.70;3.30;;;22.50;71.80;;;;;;6205455;28;88125;-66
2023/12/20 10:04:51;;;;;;;3.65;3.25;;;22.50;72.80;;;;;;6202874;28;89014;-66
2023/12/20 10:07:53;;;;;;;3.50;3.20;;;22.40;71.80;;;;;;6206202;28;88505;-66
2023/12/20 10:10:57;;;;;;;3.97;3.20;;;22.40;71.80;;;;;;6200593;28;89061;-66
2023/12/20 10:14:02;;;;;;;3.80;3.40;;;22.50;72.00;;;;;;6192542;28;89148;-66
2023/12/20 10:17:05;;;;;;;3.72;3.20;;;22.50;72.00;;;;;;6212117;28;89268;-65
2023/12/20 10:20:09;;;;;;;4.10;3.45;;;22.50;71.90;;;;;;6201414;28;89134;-66
2023/12/20 10:23:12;;;;;;;3.58;3.20;;;22.50;72.00;;;;;;6192192;28;88157;-66
2023/12/20 10:26:21;;;;;;;3.47;3.17;;;22.50;71.90;;;;;;6194804;28;88995;-66
2023/12/20 10:29:25;;;;;;;3.45;3.08;;;22.50;71.90;;;;;;6200206;28;89025;-66
2023/12/20 10:32:28;;;;;;;3.90;3.20;;;22.50;71.90;;;;;;6200903;28;89293;-66
2023/12/20 10:35:30;;;;;;;3.20;2.90;;;22.50;71.90;;;;;;6199511;28;89400;-66
2023/12/20 10:38:32;;;;;;;4.78;3.47;;;22.50;72.00;;;;;;6214741;28;88330;-66
2023/12/20 10:41:40;;;;;;;3.47;3.17;;;22.50;72.00;;;;;;6216615;28;89063;-65
2023/12/20 10:44:44;;;;;;;3.85;3.50;;;22.40;71.90;;;;;;6183960;28;89953;-66
2023/12/20 10:47:48;;;;;;;5.20;3.42;;;22.50;72.00;;;;;;6191372;28;90008;-66
2023/12/20 10:50:50;;;;;;;3.63;3.03;;;22.40;71.80;;;;;;6194940;28;89253;-65
2023/12/20 10:53:54;;;;;;;4.18;3.35;;;22.50;71.90;;;;;;6204687;28;89124;-66
2023/12/20 10:56:58;;;;;;;3.65;3.17;;;22.40;71.90;;;;;;6206315;28;89060;-65
2023/12/20 11:00:04;;;;;;;3.47;2.92;;;22.40;71.80;;;;;;6207862;28;89229;-66
2023/12/20 11:03:09;;;;;;;3.45;3.00;;;22.50;72.00;;;;;;6198636;28;89141;-66
2023/12/20 11:06:20;;;;;;;3.42;3.10;;;22.40;71.90;;;;;;6206777;28;89035;-66
2023/12/20 11:09:27;;;;;;;3.75;3.15;;;22.40;72.00;;;;;;6204540;28;88322;-65
2023/12/20 11:12:38;;;;;;;4.07;3.42;;;22.40;72.00;;;;;;6203128;28;89116;-66
2023/12/20 11:15:42;;;;;;;3.78;3.10;;;22.40;72.00;;;;;;6194527;28;89070;-65
2023/12/20 11:18:46;;;;;;;5.80;3.15;;;22.40;72.00;;;;;;6203440;28;90072;-66
2023/12/20 11:21:48;;;;;;;3.05;2.75;;;22.40;72.00;;;;;;6205719;28;88324;-66
2023/12/20 11:24:53;;;;;;;2.90;2.60;;;22.40;72.00;;;;;;6188654;28;89097;-66
2023/12/20 11:28:11;;;;;;;3.30;2.80;;;22.50;72.00;;;;;;6204608;28;89061;-66
2023/12/20 11:31:17;;;;;;;2.58;2.35;;;22.50;72.00;;;;;;6204279;28;88854;-66
2023/12/20 11:34:19;;;;;;;3.00;2.70;;;22.40;71.90;;;;;;6190924;28;88295;-66
2023/12/20 11:37:22;;;;;;;2.83;2.55;;;22.40;71.80;;;;;;6190263;28;87977;-66
2023/12/20 11:40:25;;;;;;;2.85;2.55;;;22.40;71.80;;;;;;6204587;28;88417;-65
2023/12/20 11:43:36;;;;;;;2.70;2.50;;;22.50;72.00;;;;;;6189777;28;89026;-66
2023/12/20 11:46:40;;;;;;;2.80;2.50;;;22.50;72.00;;;;;;6185082;28;89391;-66
2023/12/20 11:49:42;;;;;;;2.65;2.35;;;22.40;72.00;;;;;;6202180;28;90153;-66
2023/12/20 11:52:44;;;;;;;2.92;2.50;;;22.40;71.90;;;;;;6198994;28;89397;-66
2023/12/20 11:55:48;;;;;;;3.25;2.60;;;22.40;72.00;;;;;;6196005;28;89068;-66
2023/12/20 11:58:51;;;;;;;2.97;2.60;;;22.40;72.00;;;;;;6203720;28;89072;-65
2023/12/20 12:01:56;;;;;;;2.75;2.47;;;22.40;72.00;;;;;;6198761;28;89505;-66
2023/12/20 12:04:58;;;;;;;2.60;2.40;;;22.40;72.00;;;;;;6191863;28;89166;-66
2023/12/20 12:08:00;;;;;;;2.50;2.15;;;22.40;72.00;;;;;;6203452;28;89513;-66
2023/12/20 12:11:02;;;;;;;2.92;2.30;;;22.40;71.90;;;;;;6194318;28;88246;-66
2023/12/20 12:14:04;;;;;;;2.83;2.33;;;22.40;71.90;;;;;;6205545;28;88320;-65
2023/12/20 12:17:11;;;;;;;2.50;2.30;;;22.40;72.00;;;;;;6206337;28;89037;-65
2023/12/20 12:20:13;;;;;;;3.33;2.42;;;22.40;72.20;;;;;;6205743;28;90080;-65
2023/12/20 12:23:15;;;;;;;2.88;2.30;;;22.40;72.50;;;;;;6200553;28;89018;-65
2023/12/20 12:26:17;;;;;;;3.80;2.83;;;22.40;72.50;;;;;;6203769;28;89484;-65
2023/12/20 12:29:19;;;;;;;5.03;2.58;;;22.40;72.70;;;;;;6208201;28;87989;-65
2023/12/20 12:32:22;;;;;;;5.55;2.60;;;22.50;73.40;;;;;;6207647;28;89389;-65
2023/12/20 12:35:25;;;;;;;6.70;2.90;;;22.50;74.40;;;;;;6201727;28;89148;-65
2023/12/20 12:38:27;;;;;;;13.25;3.45;;;22.50;75.40;;;;;;6200352;28;88090;-65
2023/12/20 12:41:30;;;;;;;8.18;3.65;;;22.50;76.70;;;;;;6201623;28;88263;-65
2023/12/20 12:44:32;;;;;;;6.78;3.15;;;22.50;76.60;;;;;;6197962;28;89159;-65
2023/12/20 12:47:36;;;;;;;4.70;2.90;;;22.50;76.10;;;;;;6204772;28;88025;-65
2023/12/20 12:50:38;;;;;;;5.55;2.83;;;22.50;75.50;;;;;;6198713;28;89971;-65
2023/12/20 12:53:40;;;;;;;6.25;2.55;;;22.50;75.50;;;;;;6213582;28;89036;-65
2023/12/20 12:56:42;;;;;;;8.43;2.95;;;22.50;75.80;;;;;;6210216;28;89027;-65
2023/12/20 12:59:45;;;;;;;4.57;2.88;;;22.50;75.70;;;;;;6198945;28;88334;-65
2023/12/20 13:02:49;;;;;;;5.47;2.80;;;22.50;75.40;;;;;;6210660;28;89168;-65
2023/12/20 13:05:51;;;;;;;4.10;2.30;;;22.50;75.20;;;;;;6195965;28;89132;-65
2023/12/20 13:08:53;;;;;;;4.75;2.60;;;22.50;75.20;;;;;;6201023;28;89071;-65
2023/12/20 13:11:55;;;;;;;5.57;2.55;;;22.50;75.20;;;;;;6199255;28;88373;-65
2023/12/20 13:14:57;;;;;;;4.50;2.55;;;22.50;75.10;;;;;;6195898;28;89044;-65
2023/12/20 13:18:01;;;;;;;3.47;2.20;;;22.50;75.10;;;;;;6200188;28;89423;-65
2023/12/20 13:21:03;;;;;;;3.45;2.35;;;22.50;75.10;;;;;;6206072;28;89967;-65
2023/12/20 13:24:05;;;;;;;5.60;2.80;;;22.50;75.10;;;;;;6198657;28;89013;-65
2023/12/20 13:27:08;;;;;;;5.50;2.75;;;22.50;75.10;;;;;;6206366;28;89064;-65
2023/12/20 13:30:10;;;;;;;2.72;2.00;;;22.60;75.20;;;;;;6208037;28;87992;-65
2023/12/20 13:33:14;;;;;;;3.65;2.15;;;22.50;75.10;;;;;;6215117;28;89070;-65
2023/12/20 13:36:16;;;;;;;3.78;1.90;;;22.50;75.00;;;;;;6209488;28;88971;-65
2023/12/20 13:39:18;;;;;;;3.83;2.10;;;22.50;75.00;;;;;;6200164;28;89076;-65
2023/12/20 13:42:20;;;;;;;2.20;1.92;;;22.50;75.10;;;;;;6196428;28;87203;-65
2023/12/20 13:45:22;;;;;;;3.03;2.10;;;22.50;75.00;;;;;;6203438;28;88074;-65
2023/12/20 13:48:25;;;;;;;3.28;2.17;;;22.50;75.00;;;;;;6200259;28;89089;-65
2023/12/20 13:51:27;;;;;;;2.78;2.00;;;22.50;74.90;;;;;;6199656;28;90119;-65
2023/12/20 13:54:29;;;;;;;3.92;2.10;;;22.50;74.90;;;;;;6187791;28;89015;-65
2023/12/20 13:57:31;;;;;;;2.63;1.80;;;22.50;74.90;;;;;;6199376;28;89139;-65
2023/12/20 14:00:33;;;;;;;2.83;1.80;;;22.50;74.80;;;;;;6201020;28;89022;-65
2023/12/20 14:03:36;;;;;;;3.67;1.90;;;22.60;74.90;;;;;;6203100;28;89070;-65
2023/12/20 14:06:38;;;;;;;2.15;1.70;;;22.50;74.70;;;;;;6206144;28;88945;-65
2023/12/20 14:09:44;;;;;;;2.85;1.77;;;22.50;74.70;;;;;;6191023;28;89005;-65
2023/12/20 14:12:46;;;;;;;2.67;2.00;;;22.50;74.60;;;;;;6209430;28;88170;-65
2023/12/20 14:15:49;;;;;;;4.88;2.55;;;22.50;74.60;;;;;;6214408;28;89126;-65
2023/12/20 14:18:52;;;;;;;2.47;1.85;;;22.50;74.50;;;;;;6215384;28;88930;-64
2023/12/20 14:21:54;;;;;;;2.70;1.88;;;22.60;74.50;;;;;;6204348;28;89890;-65
2023/12/20 14:24:57;;;;;;;2.40;1.63;;;22.50;74.40;;;;;;6203852;28;89025;-65
2023/12/20 14:27:59;;;;;;;2.95;1.80;;;22.60;74.50;;;;;;6205000;28;89137;-65
2023/12/20 14:31:01;;;;;;;2.33;1.70;;;22.50;74.30;;;;;;6203824;28;89210;-65
2023/12/20 14:34:05;;;;;;;2.42;1.75;;;22.60;74.30;;;;;;6200952;28;89099;-65
2023/12/20 14:37:07;;;;;;;2.50;1.58;;;22.60;74.30;;;;;;6193451;28;87928;-65
2023/12/20 14:40:14;;;;;;;3.75;2.03;;;22.60;74.20;;;;;;6182573;28;89233;-65
2023/12/20 14:43:17;;;;;;;2.20;1.63;;;22.50;74.10;;;;;;6196766;28;88468;-65
2023/12/20 14:46:19;;;;;;;4.32;2.33;;;22.50;74.00;;;;;;6190502;28;88986;-65
2023/12/20 14:49:22;;;;;;;2.40;1.70;;;22.50;74.00;;;;;;6204919;28;89022;-65
2023/12/20 14:52:24;;;;;;;4.63;2.33;;;22.60;74.00;;;;;;6194773;28;89956;-64
2023/12/20 14:55:27;;;;;;;2.95;1.48;;;22.60;74.00;;;;;;6205063;28;87965;-64
2023/12/20 14:58:29;;;;;;;2.63;1.60;;;22.50;73.90;;;;;;6193845;28;88983;-64
2023/12/20 15:01:31;;;;;;;2.13;1.60;;;22.60;73.90;;;;;;6206549;28;88863;-64
2023/12/20 15:04:35;;;;;;;2.42;1.65;;;22.50;73.80;;;;;;6200442;28;89357;-64
2023/12/20 15:07:37;;;;;;;3.30;1.67;;;22.60;73.80;;;;;;6186498;28;89106;-64
2023/12/20 15:10:39;;;;;;;2.22;1.48;;;22.50;73.70;;;;;;6199775;28;89038;-64
2023/12/20 15:13:42;;;;;;;1.90;1.40;;;22.50;73.70;;;;;;6204489;28;88290;-64
2023/12/20 15:16:44;;;;;;;3.42;2.00;;;22.50;73.70;;;;;;6197171;28;88868;-64
2023/12/20 15:19:47;;;;;;;2.67;1.63;;;22.60;73.70;;;;;;6197641;28;87954;-64
2023/12/20 15:22:49;;;;;;;3.03;1.65;;;22.60;73.70;;;;;;6202902;28;90161;-64
2023/12/20 15:25:51;;;;;;;1.70;1.40;;;22.50;73.60;;;;;;6203606;28;89045;-65
2023/12/20 15:28:53;;;;;;;3.92;1.80;;;22.50;74.00;;;;;;6204292;28;89047;-64
2023/12/20 15:31:55;;;;;;;2.78;1.85;;;22.60;73.70;;;;;;6189940;28;89379;-63
2023/12/20 15:34:59;;;;;;;1.42;1.20;;;22.60;73.60;;;;;;6193717;28;89057;-64
2023/12/20 15:38:01;;;;;;;1.67;1.30;;;22.60;73.50;;;;;;6202964;28;88986;-64
2023/12/20 15:41:03;;;;;;;1.70;1.23;;;22.60;73.50;;;;;;6196362;28;89131;-64
2023/12/20 15:44:05;;;;;;;1.70;1.30;;;22.60;73.50;;;;;;6193859;28;88394;-64
2023/12/20 15:47:07;;;;;;;1.60;1.40;;;22.50;73.40;;;;;;6195956;28;89733;-64